Time;durP1;ratioP1;P1;durP2;ratioP2;P2;SDS_P1;SDS_P2;PMS_P1;PMS_P2;Temp;Humidity;BMP_temperature;BMP_pressure;BME280_temperature;BME280_humidity;BME280_pressure;Samples;Min_cycle;Max_cycle;Signal;HPM_P1;HPM_P2
2022/03/21 00:00:59;;;;;;;7.75;5.43;;;;;;;-3.62;62.39;95918.34;6382252;27;20523;-58
2022/03/21 00:04:04;;;;;;;9.90;6.72;;;;;;;-3.71;62.75;95929.69;6380657;27;20043;-57
2022/03/21 00:07:05;;;;;;;8.07;5.45;;;;;;;-3.82;63.05;95934.25;6359913;27;20540;-60
2022/03/21 00:10:09;;;;;;;10.38;6.78;;;;;;;-3.98;63.02;95943.19;6375682;27;20027;-63
2022/03/21 00:13:15;;;;;;;9.95;6.32;;;;;;;-4.14;63.16;95938.38;6375390;27;20050;-57
2022/03/21 00:16:17;;;;;;;8.57;6.32;;;;;;;-4.11;63.58;95928.03;6369884;27;20043;-58
2022/03/21 00:19:21;;;;;;;6.43;4.80;;;;;;;-4.22;63.88;95909.44;6376228;27;21649;-59
2022/03/21 00:22:25;;;;;;;7.93;5.70;;;;;;;-4.37;63.53;95909.78;6384900;27;20035;-59
2022/03/21 00:25:29;;;;;;;9.93;5.90;;;;;;;-4.32;63.70;95905.41;6385378;27;20419;-56
2022/03/21 00:28:30;;;;;;;9.10;6.97;;;;;;;-4.30;62.93;95890.81;6364076;27;20042;-61
2022/03/21 00:31:37;;;;;;;7.22;4.85;;;;;;;-4.28;63.01;95889.88;6384589;27;20038;-60
2022/03/21 00:34:41;;;;;;;9.73;6.93;;;;;;;-4.34;62.67;95896.88;6380152;27;20035;-59
2022/03/21 00:37:48;;;;;;;8.02;6.25;;;;;;;-4.53;62.92;95888.72;6382183;27;20042;-59
2022/03/21 00:40:53;;;;;;;8.68;6.80;;;;;;;-4.56;63.05;95899.06;6380228;27;20039;-58
2022/03/21 00:43:58;;;;;;;8.82;6.43;;;;;;;-4.51;62.65;95892.94;6381847;27;20191;-60
2022/03/21 00:47:01;;;;;;;7.72;6.38;;;;;;;-4.49;62.79;95889.53;6384905;27;20031;-60
2022/03/21 00:50:08;;;;;;;8.73;6.45;;;;;;;-4.56;62.98;95881.97;6382532;27;20037;-56
2022/03/21 00:53:11;;;;;;;9.88;6.90;;;;;;;-4.54;63.46;95872.47;6377238;27;20039;-57
2022/03/21 00:56:14;;;;;;;9.77;7.13;;;;;;;-4.52;63.39;95873.31;6377038;27;20389;-60
2022/03/21 00:59:15;;;;;;;10.27;6.57;;;;;;;-4.51;62.81;95872.41;6385309;27;20047;-59
2022/03/21 01:02:20;;;;;;;11.25;6.55;;;;;;;-4.49;63.11;95869.00;6378409;27;20266;-59
2022/03/21 01:05:24;;;;;;;;;;;;;;;-4.41;62.92;95883.34;6387834;27;20046;-60
2022/03/21 01:08:30;;;;;;;6.97;4.72;;;;;;;-4.37;62.38;95868.72;6381056;27;19919;-59
2022/03/21 01:11:34;;;;;;;7.57;5.68;;;;;;;-4.30;62.27;95870.28;6373245;27;20055;-58
2022/03/21 01:14:38;;;;;;;7.57;5.47;;;;;;;-4.34;62.36;95866.06;6381736;27;20043;-57
2022/03/21 01:17:39;;;;;;;9.13;5.63;;;;;;;-4.41;62.49;95867.94;6374530;27;20046;-57
2022/03/21 01:20:43;;;;;;;7.40;5.90;;;;;;;-4.41;62.46;95867.09;6373529;27;20042;-56
2022/03/21 01:23:49;;;;;;;7.63;6.32;;;;;;;-4.40;62.68;95848.22;6383565;27;20061;-57
2022/03/21 01:26:51;;;;;;;8.57;6.00;;;;;;;-4.47;63.02;95846.66;6382780;27;20531;-60
2022/03/21 01:29:53;;;;;;;8.77;5.88;;;;;;;-4.43;63.09;95858.56;6381222;27;20619;-57
2022/03/21 01:32:57;;;;;;;9.07;5.78;;;;;;;-4.52;63.32;95855.34;6377790;27;20035;-57
2022/03/21 01:35:58;;;;;;;7.85;5.90;;;;;;;-4.66;63.04;95848.81;6381916;27;20035;-59
2022/03/21 01:39:02;;;;;;;8.48;5.82;;;;;;;-4.81;63.29;95848.28;6382269;27;20047;-58
2022/03/21 01:42:03;;;;;;;9.38;6.20;;;;;;;-4.90;63.27;95851.00;6387422;27;20415;-60
2022/03/21 01:45:06;;;;;;;7.72;5.82;;;;;;;-5.01;63.73;95840.13;6379764;27;20445;-58
2022/03/21 01:48:08;;;;;;;7.47;5.45;;;;;;;-5.02;64.08;95843.56;6384512;27;21582;-60
2022/03/21 01:51:09;;;;;;;6.63;5.05;;;;;;;-5.10;64.33;95840.31;6381022;27;20046;-58
2022/03/21 01:57:34;;;;;;;6.38;4.63;;;;;;;-5.20;64.26;95839.66;6379885;27;20051;-58
2022/03/21 02:00:35;;;;;;;5.18;4.50;;;;;;;-5.27;64.36;95832.97;6375963;27;20072;-57
2022/03/21 02:03:37;;;;;;;7.00;5.93;;;;;;;-5.40;63.82;95837.50;6379314;27;20463;-60
2022/03/21 02:06:42;;;;;;;7.13;5.65;;;;;;;-5.50;64.93;95836.81;6383529;27;20389;-57
2022/03/21 02:09:44;;;;;;;8.60;5.53;;;;;;;-5.47;64.81;95830.78;6379208;27;20058;-58
2022/03/21 02:12:54;;;;;;;8.50;6.47;;;;;;;-5.54;64.49;95830.06;6382750;27;20087;-58
2022/03/21 02:15:58;;;;;;;10.77;6.40;;;;;;;-5.54;64.87;95813.84;6378483;27;20034;-57
2022/03/21 02:19:07;;;;;;;10.27;6.75;;;;;;;-5.60;63.94;95814.81;6373786;27;20050;-59
2022/03/21 02:22:38;;;;;;;8.75;6.13;;;;;;;-5.55;64.29;95801.88;6380109;27;20637;-61
2022/03/21 02:25:43;;;;;;;8.35;6.22;;;;;;;-5.74;64.05;95788.59;6382641;27;20050;-58
2022/03/21 02:28:48;;;;;;;8.23;5.63;;;;;;;-5.77;64.18;95771.56;6385746;27;20047;-59
2022/03/21 02:31:51;;;;;;;8.60;6.15;;;;;;;-5.74;64.39;95779.19;6379006;27;20047;-61
2022/03/21 02:34:56;;;;;;;7.68;3.88;;;;;;;-5.66;64.31;95779.06;6373751;27;20476;-59
2022/03/21 02:37:58;;;;;;;7.93;5.50;;;;;;;-5.50;64.36;95772.72;6381483;27;20082;-60
2022/03/21 02:41:02;;;;;;;10.40;6.38;;;;;;;-5.28;64.32;95764.63;6381559;27;20062;-60
2022/03/21 02:44:03;;;;;;;11.43;6.85;;;;;;;-5.14;63.89;95761.75;6374942;27;20042;-60
2022/03/21 02:47:06;;;;;;;9.63;5.72;;;;;;;-4.97;63.87;95755.38;6374638;27;20076;-59
2022/03/21 02:50:12;;;;;;;8.68;6.03;;;;;;;-4.68;63.56;95751.31;6377189;27;20039;-61
2022/03/21 02:53:14;;;;;;;9.55;6.13;;;;;;;-4.42;62.74;95752.41;6372519;27;20042;-60
2022/03/21 02:56:20;;;;;;;10.57;6.40;;;;;;;-4.25;62.05;95755.41;6373179;27;20066;-59
2022/03/21 02:59:25;;;;;;;7.95;5.47;;;;;;;-4.12;62.34;95751.66;6382177;27;20039;-60
2022/03/21 03:02:29;;;;;;;7.45;5.20;;;;;;;-4.00;61.81;95752.22;6370545;27;20069;-58
2022/03/21 03:05:33;;;;;;;8.32;6.13;;;;;;;-3.94;61.11;95745.19;6376640;27;20050;-58
2022/03/21 03:08:37;;;;;;;9.60;5.63;;;;;;;-3.78;60.72;95740.50;6374585;27;20451;-59
2022/03/21 03:11:39;;;;;;;9.83;5.70;;;;;;;-3.59;60.03;95729.69;6377054;27;20042;-60
2022/03/21 03:14:43;;;;;;;7.45;5.43;;;;;;;-3.40;59.62;95723.16;6353556;27;20508;-61
2022/03/21 03:17:46;;;;;;;8.60;6.18;;;;;;;-3.27;59.06;95734.78;6373202;27;20038;-60
2022/03/21 03:20:53;;;;;;;7.35;5.32;;;;;;;-3.09;58.74;95719.69;6378971;27;20419;-60
2022/03/21 03:23:59;;;;;;;8.00;5.30;;;;;;;-3.23;58.97;95707.25;6377812;27;20043;-59
2022/03/21 03:27:03;;;;;;;7.27;5.30;;;;;;;-3.36;59.44;95706.78;6384590;27;20047;-58
2022/03/21 03:30:05;;;;;;;7.18;5.35;;;;;;;-3.49;59.74;95697.72;6382690;27;20050;-61
2022/03/21 03:33:09;;;;;;;9.00;5.88;;;;;;;-3.51;59.48;95696.91;6377886;27;21832;-58
2022/03/21 03:36:15;;;;;;;10.80;5.97;;;;;;;-3.25;59.21;95688.47;6372133;27;20046;-60
2022/03/21 03:39:18;;;;;;;7.15;6.03;;;;;;;-3.04;58.76;95686.94;6380436;27;20560;-61
2022/03/21 03:42:25;;;;;;;8.55;5.63;;;;;;;-2.90;58.97;95678.81;6373179;27;20055;-60
2022/03/21 03:45:27;;;;;;;9.13;5.40;;;;;;;-2.68;58.52;95674.66;6362154;27;20047;-58
2022/03/21 03:48:29;;;;;;;7.00;4.70;;;;;;;-2.43;57.81;95669.56;6370139;27;20050;-60
2022/03/21 03:51:36;;;;;;;7.97;4.85;;;;;;;-2.13;57.46;95670.25;6378216;27;20035;-58
2022/03/21 03:54:40;;;;;;;6.78;4.85;;;;;;;-1.67;56.85;95666.06;6372483;27;20047;-60
2022/03/21 03:57:47;;;;;;;7.45;4.40;;;;;;;-1.19;55.48;95646.22;6378960;27;20432;-60
2022/03/21 04:00:52;;;;;;;5.65;4.30;;;;;;;-0.70;54.95;95670.97;6389532;27;20047;-59
2022/03/21 04:03:53;;;;;;;8.18;4.40;;;;;;;-0.21;53.56;95668.13;6376484;27;20042;-61
2022/03/21 04:06:57;;;;;;;5.38;3.90;;;;;;;0.05;53.40;95661.84;6377079;27;20051;-59
2022/03/21 04:10:05;;;;;;;7.20;4.63;;;;;;;0.13;52.93;95656.38;6376235;27;20047;-61
2022/03/21 04:13:06;;;;;;;;;;;;;;;0.19;53.02;95650.91;6378215;27;20043;-59
2022/03/21 04:16:10;;;;;;;8.20;5.13;;;;;;;0.02;53.40;95643.06;6379758;27;20308;-59
2022/03/21 04:19:16;;;;;;;7.10;5.38;;;;;;;-0.04;53.32;95654.50;6381761;27;20142;-60
2022/03/21 04:22:18;;;;;;;7.88;5.32;;;;;;;-0.03;53.19;95635.47;6383839;27;20602;-60
2022/03/21 04:25:19;;;;;;;8.38;4.63;;;;;;;0.07;53.12;95639.34;6379398;27;20047;-60
2022/03/21 04:28:20;;;;;;;6.35;4.47;;;;;;;0.23;52.70;95636.97;6385076;27;20095;-60
2022/03/21 04:31:27;;;;;;;6.80;4.82;;;;;;;0.19;53.32;95645.75;6385453;27;20030;-61
2022/03/21 04:34:30;;;;;;;8.10;4.95;;;;;;;0.10;52.89;95643.56;6374840;27;20512;-57
2022/03/21 04:37:37;;;;;;;7.53;4.78;;;;;;;0.08;53.83;95642.78;6377919;27;20038;-59
2022/03/21 04:40:43;;;;;;;7.95;4.95;;;;;;;0.27;52.73;95648.00;6381810;27;20066;-59
2022/03/21 04:43:45;;;;;;;9.05;5.45;;;;;;;0.65;52.55;95654.91;6389894;27;20034;-58
2022/03/21 04:46:48;;;;;;;7.60;5.15;;;;;;;0.99;51.57;95657.69;6384571;27;20076;-58
2022/03/21 04:49:49;;;;;;;8.20;5.10;;;;;;;1.09;50.04;95664.13;6376107;27;20043;-59
2022/03/21 04:52:53;;;;;;;8.93;5.85;;;;;;;0.90;49.69;95670.13;6376661;27;20049;-60
2022/03/21 04:55:57;;;;;;;8.98;5.18;;;;;;;0.66;50.22;95672.09;6376620;27;20043;-66
2022/03/21 04:59:01;;;;;;;6.95;5.40;;;;;;;0.34;50.77;95660.63;6375486;27;20057;-65
2022/03/21 05:02:08;;;;;;;7.55;5.63;;;;;;;0.06;51.24;95667.84;6380359;27;20027;-66
2022/03/21 05:05:12;;;;;;;8.70;6.40;;;;;;;0.32;51.77;95652.06;6358738;27;20129;-67
2022/03/21 05:08:16;;;;;;;6.07;5.05;;;;;;;0.37;51.18;95659.63;6374840;27;20075;-66
2022/03/21 05:11:20;;;;;;;6.50;5.68;;;;;;;0.18;52.00;95649.25;6378281;27;20058;-65
2022/03/21 05:14:27;;;;;;;7.97;5.50;;;;;;;0.26;52.17;95639.41;6378914;27;20419;-67
2022/03/21 05:17:33;;;;;;;7.80;5.88;;;;;;;0.47;51.98;95645.38;6374666;27;20156;-67
2022/03/21 05:20:37;;;;;;;8.02;6.07;;;;;;;0.97;50.82;95634.44;6383874;27;20030;-65
2022/03/21 05:37:07;;;;;;;9.30;4.63;;;;;;;0.29;52.60;95623.75;6385226;27;20070;-66
2022/03/21 05:43:33;;;;;;;8.05;5.15;;;;;;;0.39;52.41;95591.34;6383162;27;20159;-66
2022/03/21 05:46:40;;;;;;;4.43;3.08;;;;;;;2.92;48.10;95581.25;6383423;27;20503;-66
2022/03/21 05:49:42;;;;;;;6.07;4.57;;;;;;;8.05;39.04;95587.84;6378176;27;20038;-69
2022/03/21 05:52:46;;;;;;;5.97;4.72;;;;;;;12.23;31.17;95597.78;6383203;27;20039;-66
2022/03/21 05:55:48;;;;;;;6.63;4.20;;;;;;;14.80;27.70;95583.44;6382481;27;20043;-66
2022/03/21 05:58:50;;;;;;;4.82;4.28;;;;;;;16.51;24.63;95581.34;6385581;27;20039;-68
2022/03/21 06:01:54;;;;;;;5.78;3.60;;;;;;;18.75;22.50;95575.38;6382663;27;20043;-70
2022/03/21 06:05:01;;;;;;;4.40;3.42;;;;;;;20.54;20.34;95581.22;6385980;27;20432;-70
2022/03/21 06:08:05;;;;;;;4.60;3.17;;;;;;;21.48;18.80;95572.81;6395980;27;20512;-69
2022/03/21 06:11:12;;;;;;;4.10;3.28;;;;;;;22.74;17.49;95567.72;6391917;27;20052;-70
2022/03/21 06:14:20;;;;;;;3.13;2.67;;;;;;;23.33;16.33;95575.94;6371890;27;20051;-69
2022/03/21 06:17:27;;;;;;;4.15;3.55;;;;;;;23.06;16.19;95567.91;6371788;27;20051;-69
2022/03/21 06:20:36;;;;;;;3.95;3.05;;;;;;;22.33;16.79;95576.78;6370351;27;20531;-69
2022/03/21 06:23:37;;;;;;;3.05;2.50;;;;;;;24.06;15.17;95565.72;6382622;27;20047;-69
2022/03/21 06:26:44;;;;;;;3.50;2.75;;;;;;;24.71;14.14;95578.94;6393544;27;20050;-67
2022/03/21 06:29:51;;;;;;;4.15;3.17;;;;;;;25.04;14.14;95585.91;6382645;27;20666;-68
2022/03/21 06:32:53;;;;;;;5.25;2.47;;;;;;;25.64;13.70;95598.75;6352225;27;20113;-66
2022/03/21 06:35:59;;;;;;;3.30;3.00;;;;;;;22.47;15.58;95598.25;6362378;27;20407;-65
2022/03/21 06:39:01;;;;;;;4.15;3.53;;;;;;;20.29;16.94;95586.13;6375092;27;20038;-66
2022/03/21 06:42:06;;;;;;;2.47;2.28;;;;;;;22.58;15.33;95589.59;6375300;27;20517;-66
2022/03/21 06:45:12;;;;;;;4.85;3.45;;;;;;;21.16;16.02;95590.31;6377026;27;20046;-66
2022/03/21 06:48:21;;;;;;;3.60;3.05;;;;;;;17.09;19.32;95577.59;6383342;27;20046;-62
2022/03/21 06:51:27;;;;;;;4.57;3.22;;;;;;;13.18;23.08;95578.31;6357610;27;20038;-62
2022/03/21 06:54:32;;;;;;;2.67;2.08;;;;;;;10.57;26.49;95575.56;6379401;27;20052;-63
2022/03/21 06:57:34;;;;;;;3.13;2.50;;;;;;;8.93;28.80;95566.22;6366052;27;20127;-62
2022/03/21 07:00:39;;;;;;;4.88;3.38;;;;;;;7.63;31.45;95573.53;6383588;27;20516;-61
2022/03/21 07:03:44;;;;;;;4.05;3.25;;;;;;;6.38;33.09;95572.91;6387102;27;20400;-62
2022/03/21 07:06:45;;;;;;;4.18;3.67;;;;;;;5.80;35.47;95578.50;6381154;27;20043;-62
2022/03/21 07:09:50;;;;;;;5.07;3.63;;;;;;;5.27;37.08;95571.56;6386544;27;20057;-63
2022/03/21 07:12:54;;;;;;;5.72;4.22;;;;;;;5.14;37.68;95571.50;6372899;27;20066;-62
2022/03/21 07:15:59;;;;;;;6.72;4.57;;;;;;;5.08;37.62;95575.34;6384526;27;20142;-67
2022/03/21 07:19:08;;;;;;;6.43;4.57;;;;;;;5.23;37.53;95562.25;6379093;27;20504;-67
2022/03/21 07:22:12;;;;;;;4.63;3.58;;;;;;;5.47;37.08;95570.28;6378111;27;20054;-65
2022/03/21 07:25:13;;;;;;;3.95;3.05;;;;;;;6.48;35.62;95574.78;6385551;27;20475;-66
2022/03/21 07:28:17;;;;;;;4.88;3.85;;;;;;;9.22;32.19;95570.94;6382977;27;20031;-66
2022/03/21 07:31:21;;;;;;;4.82;3.80;;;;;;;12.07;27.66;95557.00;6392551;27;20086;-66
2022/03/21 07:34:25;;;;;;;4.40;3.88;;;;;;;13.50;25.77;95577.03;6401475;27;20411;-66
2022/03/21 07:37:29;;;;;;;4.65;3.45;;;;;;;13.27;25.37;95598.59;6401407;27;20039;-67
2022/03/21 07:40:32;;;;;;;;;;;;;;;12.09;26.61;95592.00;6400308;27;20064;-67
2022/03/21 07:43:38;;;;;;;5.28;4.03;;;;;;;10.09;29.33;95586.59;6382122;27;19919;-65
2022/03/21 07:50:06;;;;;;;5.38;4.00;;;;;;;7.91;32.38;95582.81;6382902;27;20057;-65
2022/03/21 07:53:07;;;;;;;5.18;4.15;;;;;;;7.29;33.84;95569.94;6394088;27;20059;-67
2022/03/21 07:56:09;;;;;;;5.10;3.95;;;;;;;6.88;34.69;95566.75;6389397;27;20123;-68
2022/03/21 07:59:14;;;;;;;5.00;3.80;;;;;;;6.89;34.38;95557.94;6375268;27;20041;-69
2022/03/21 08:02:21;;;;;;;7.30;4.68;;;;;;;7.12;33.84;95558.91;6379504;27;20081;-74
2022/03/21 08:05:28;;;;;;;6.00;4.57;;;;;;;7.24;33.72;95551.13;6353651;27;20405;-67
2022/03/21 08:08:34;;;;;;;4.38;3.40;;;;;;;7.80;32.87;95541.69;6377821;27;20121;-66
2022/03/21 08:11:38;;;;;;;4.97;3.60;;;;;;;7.98;32.50;95526.41;6374146;27;20047;-67
2022/03/21 08:14:40;;;;;;;5.45;3.95;;;;;;;8.46;31.62;95510.47;6373455;27;20428;-66
2022/03/21 08:17:51;;;;;;;5.15;4.30;;;;;;;9.98;29.52;95505.22;6373900;27;20051;-66
2022/03/21 08:20:52;;;;;;;4.53;3.83;;;;;;;11.31;27.70;95509.44;6373827;27;20051;-67
2022/03/21 08:23:56;;;;;;;5.55;4.03;;;;;;;11.69;27.17;95521.78;6388109;27;20050;-68
2022/03/21 08:27:01;;;;;;;4.57;3.63;;;;;;;11.20;27.42;95525.34;6397735;27;20047;-68
2022/03/21 08:30:07;;;;;;;4.50;3.78;;;;;;;10.40;28.44;95528.84;6400156;27;20039;-66
2022/03/21 08:33:11;;;;;;;5.63;3.53;;;;;;;11.77;27.81;95533.41;6400498;27;20045;-67
2022/03/21 08:36:13;;;;;;;5.20;3.45;;;;;;;14.91;24.78;95557.66;6385424;27;20047;-66
2022/03/21 08:39:14;;;;;;;3.63;3.00;;;;;;;16.34;23.22;95554.00;6394744;27;20556;-66
2022/03/21 08:42:17;;;;;;;3.72;3.33;;;;;;;17.01;22.25;95565.19;6354229;27;20401;-67
2022/03/21 08:45:21;;;;;;;5.15;3.65;;;;;;;16.97;22.30;95563.03;6395956;27;20496;-67
2022/03/21 08:52:08;;;;;;;3.10;2.45;;;;;;;14.88;24.10;95550.03;6359158;27;20046;-66
2022/03/21 08:55:18;;;;;;;3.25;2.42;;;;;;;13.19;25.71;95545.63;6400535;27;20129;-66
2022/03/21 08:58:22;;;;;;;2.78;2.47;;;;;;;12.72;26.26;95543.09;6398653;27;20038;-66
2022/03/21 09:01:26;;;;;;;4.80;3.10;;;;;;;12.73;25.90;95536.84;6391709;27;20045;-67
2022/03/21 09:04:32;;;;;;;3.40;2.65;;;;;;;12.27;25.98;95535.88;6399216;27;20411;-65
2022/03/21 09:07:36;;;;;;;5.63;3.80;;;;;;;12.42;25.64;95529.16;6367297;27;20043;-65
2022/03/21 09:10:41;;;;;;;5.60;4.00;;;;;;;12.44;25.68;95527.22;6373550;27;20512;-68
2022/03/21 09:13:49;;;;;;;4.63;4.05;;;;;;;13.39;24.51;95534.00;6373878;27;20054;-68
2022/03/21 09:16:56;;;;;;;5.03;3.42;;;;;;;14.12;23.29;95536.47;6376757;27;20518;-67
2022/03/21 09:19:57;;;;;;;4.25;3.53;;;;;;;14.10;23.34;95533.16;6372332;27;20129;-66
2022/03/21 09:23:02;;;;;;;4.97;4.35;;;;;;;14.76;23.19;95538.88;6380368;27;20456;-67
2022/03/21 09:26:10;;;;;;;5.05;3.88;;;;;;;15.83;22.32;95532.13;6398473;27;20042;-67
2022/03/21 09:29:12;;;;;;;4.70;3.72;;;;;;;16.00;22.38;95536.44;6391633;27;20046;-66
2022/03/21 09:32:17;;;;;;;5.30;3.75;;;;;;;15.49;22.74;95533.03;6389044;27;20042;-67
2022/03/21 09:35:25;;;;;;;6.10;4.30;;;;;;;14.76;23.45;95539.72;6379096;27;20047;-67
2022/03/21 09:38:36;;;;;;;4.90;3.63;;;;;;;14.37;23.89;95552.50;6381819;27;20046;-67
2022/03/21 09:41:42;;;;;;;6.30;4.38;;;;;;;13.92;24.08;95546.38;6384776;27;20046;-66
2022/03/21 09:44:53;;;;;;;4.90;3.85;;;;;;;11.68;26.13;95557.00;6375440;27;20051;-68
2022/03/21 09:48:14;;;;;;;3.75;2.35;;;;;;;8.85;31.34;95583.53;6379003;27;20031;-67
2022/03/21 09:51:26;;;;;;;4.00;2.20;;;;;;;5.59;41.19;95585.13;6384554;27;20097;-66
2022/03/21 09:54:33;;;;;;;1.67;1.50;;;;;;;3.42;47.07;95594.09;6381578;27;20035;-67
2022/03/21 09:57:37;;;;;;;2.15;1.20;;;;;;;2.37;51.29;95594.63;6379746;27;20058;-65
2022/03/21 10:00:48;;;;;;;1.40;1.10;;;;;;;1.47;54.52;95596.66;6385495;27;20058;-65
2022/03/21 10:03:50;;;;;;;2.28;1.27;;;;;;;0.94;57.29;95607.88;6388301;27;20047;-65
2022/03/21 10:07:00;;;;;;;1.27;1.17;;;;;;;0.47;58.16;95597.94;6384549;27;20039;-65
2022/03/21 10:10:08;;;;;;;3.15;1.77;;;;;;;0.35;58.20;95600.19;6387787;27;20034;-66
2022/03/21 10:13:16;;;;;;;4.85;2.35;;;;;;;0.53;57.51;95595.06;6380856;27;20051;-67
2022/03/21 10:16:20;;;;;;;6.32;2.22;;;;;;;0.82;56.61;95599.75;6388359;27;20043;-66
2022/03/21 10:19:40;;;;;;;6.80;2.58;;;;;;;1.09;55.07;95592.41;6382167;27;20043;-66
2022/03/21 10:22:44;;;;;;;6.53;2.65;;;;;;;1.44;53.39;95594.22;6377659;27;20522;-66
2022/03/21 10:25:49;;;;;;;6.55;2.78;;;;;;;1.84;52.19;95602.56;6387726;27;20129;-65
2022/03/21 10:28:58;;;;;;;3.22;1.83;;;;;;;2.48;51.18;95601.84;6380389;27;20038;-67
2022/03/21 10:32:02;;;;;;;3.80;1.80;;;;;;;3.45;49.54;95614.72;6376838;27;20051;-70
2022/03/21 10:35:26;;;;;;;3.78;1.95;;;;;;;5.45;46.38;95624.31;6384566;27;20043;-69
2022/03/21 10:38:31;;;;;;;8.75;3.45;;;;;;;5.66;45.90;95635.97;6378010;27;20200;-67
2022/03/21 10:41:43;;;;;;;8.73;3.75;;;;;;;4.41;48.34;95632.47;6379026;27;20038;-69
2022/03/21 10:44:54;;;;;;;6.45;3.17;;;;;;;3.67;49.85;95640.34;6377206;27;20515;-71
2022/03/21 10:48:03;;;;;;;2.70;1.85;;;;;;;3.47;50.23;95650.13;6362311;27;20485;-69
2022/03/21 10:51:15;;;;;;;2.97;1.63;;;;;;;3.57;49.73;95659.09;6376283;27;20039;-69
2022/03/21 10:54:39;;;;;;;2.72;1.63;;;;;;;4.15;47.79;95651.44;6383238;27;20035;-68
2022/03/21 10:57:45;;;;;;;1.83;1.50;;;;;;;4.20;45.69;95649.41;6388020;27;20038;-71
2022/03/21 11:00:52;;;;;;;1.40;1.08;;;;;;;4.58;45.02;95654.06;6375502;27;20039;-70
2022/03/21 11:03:59;;;;;;;1.15;0.90;;;;;;;4.48;43.72;95654.63;6376702;27;20131;-72
2022/03/21 11:07:11;;;;;;;11.27;1.27;;;;;;;4.60;43.96;95662.66;6352339;27;20034;-71
2022/03/21 11:10:15;;;;;;;1.00;0.90;;;;;;;4.49;42.96;95677.13;6357252;27;20124;-71
2022/03/21 11:13:20;;;;;;;3.05;1.10;;;;;;;3.64;44.53;95682.13;6386539;27;20577;-71
2022/03/21 11:16:24;;;;;;;2.22;1.00;;;;;;;3.92;44.75;95686.63;6378793;27;20046;-70
2022/03/21 11:19:35;;;;;;;0.65;0.65;;;;;;;3.75;44.60;95679.78;6378709;27;20081;-72
2022/03/21 11:22:39;;;;;;;1.92;0.88;;;;;;;2.91;45.17;95677.47;6372007;27;20062;-67
2022/03/21 11:25:49;;;;;;;1.25;0.77;;;;;;;2.94;45.05;95687.69;6371305;27;20047;-67
2022/03/21 11:29:14;;;;;;;1.05;0.90;;;;;;;3.69;43.19;95685.31;6373603;27;20141;-68
2022/03/21 11:32:27;;;;;;;1.25;0.52;;;;;;;4.44;39.86;95692.19;6373354;27;20055;-67
2022/03/21 11:35:34;;;;;;;1.52;0.70;;;;;;;5.00;37.95;95691.47;6385650;27;20047;-68
2022/03/21 11:38:45;;;;;;;0.70;0.70;;;;;;;6.78;35.84;95706.06;6378298;27;20043;-68
2022/03/21 11:42:22;;;;;;;1.33;0.77;;;;;;;8.24;32.76;95705.22;6377994;27;20113;-68
2022/03/21 11:45:34;;;;;;;0.95;0.60;;;;;;;8.44;30.91;95709.00;6352992;27;20535;-66
2022/03/21 11:48:38;;;;;;;0.50;0.50;;;;;;;7.60;31.51;95705.50;6378078;27;20039;-67
2022/03/21 11:51:43;;;;;;;2.15;0.40;;;;;;;7.20;31.99;95707.50;6387624;27;20035;-68
2022/03/21 11:54:49;;;;;;;1.15;0.50;;;;;;;5.91;33.17;95707.47;6378797;27;20053;-69
2022/03/21 11:57:53;;;;;;;0.55;0.50;;;;;;;6.47;33.04;95721.19;6373947;27;20039;-72
2022/03/21 12:01:12;;;;;;;0.73;0.60;;;;;;;7.77;31.05;95727.84;6374337;27;20050;-68
2022/03/21 12:04:42;;;;;;;0.50;0.50;;;;;;;8.56;29.45;95732.63;6374818;27;20489;-69
2022/03/21 12:07:48;;;;;;;0.45;0.40;;;;;;;8.84;29.02;95737.47;6366730;27;20564;-71
2022/03/21 12:10:53;;;;;;;0.50;0.50;;;;;;;8.22;29.79;95724.63;6368987;27;20405;-70
2022/03/21 12:14:22;;;;;;;0.40;0.40;;;;;;;6.86;30.64;95745.59;6369655;27;20145;-70
2022/03/21 12:17:26;;;;;;;1.60;0.68;;;;;;;5.90;32.66;95742.34;6374231;27;20061;-74
2022/03/21 12:20:47;;;;;;;2.03;1.10;;;;;;;5.53;33.22;95763.78;6392796;27;20110;-70
2022/03/21 12:24:18;;;;;;;8.02;2.38;;;;;;;5.43;33.21;95767.06;6380776;27;20043;-70
2022/03/21 12:27:43;;;;;;;7.45;2.97;;;;;;;5.32;33.23;95747.72;6384815;27;20081;-71
2022/03/21 12:30:50;;;;;;;8.18;2.75;;;;;;;5.04;33.99;95761.59;6372034;27;20046;-69
2022/03/21 12:34:12;;;;;;;6.57;2.33;;;;;;;4.23;34.68;95769.00;6364040;27;20055;-70
2022/03/21 12:37:25;;;;;;;3.00;1.10;;;;;;;3.19;36.05;95765.19;6383411;27;20051;-70
2022/03/21 12:40:31;;;;;;;1.15;0.60;;;;;;;2.39;37.05;95781.47;6381520;27;20046;-67
2022/03/21 12:43:45;;;;;;;1.08;0.60;;;;;;;1.87;37.67;95786.59;6388195;27;20044;-70
2022/03/21 12:46:57;;;;;;;1.92;0.70;;;;;;;1.29;39.11;95797.94;6381955;27;20035;-69
2022/03/21 12:50:01;;;;;;;0.98;0.60;;;;;;;1.23;39.51;95791.28;6378828;27;20507;-70
2022/03/21 12:53:16;;;;;;;0.95;0.50;;;;;;;1.19;39.26;95799.25;6385173;27;20034;-70
2022/03/21 12:56:28;;;;;;;1.13;0.80;;;;;;;1.01;39.41;95795.75;6394566;27;20043;-70
2022/03/21 12:59:31;;;;;;;0.80;0.68;;;;;;;0.61;40.30;95803.50;6384453;27;20042;-69
2022/03/21 13:02:35;;;;;;;1.30;0.60;;;;;;;0.23;40.80;95802.53;6382690;27;20051;-69
2022/03/21 13:12:34;;;;;;;1.23;0.80;;;;;;;1.70;38.19;95811.59;6381453;27;20043;-68
2022/03/21 13:15:42;;;;;;;2.58;1.00;;;;;;;1.82;39.01;95814.53;6385594;27;20047;-68
2022/03/21 13:19:03;;;;;;;;;;;;;;;1.82;38.40;95819.72;6381722;27;20126;-63
2022/03/21 13:22:07;;;;;;;1.60;0.82;;;;;;;1.84;38.10;95823.03;6377597;27;19915;-63
2022/03/21 13:25:26;;;;;;;1.92;0.60;;;;;;;1.83;38.07;95821.38;6388054;27;20119;-63
2022/03/21 13:28:38;;;;;;;2.20;0.73;;;;;;;1.60;39.05;95831.06;6375032;27;20128;-64
2022/03/21 13:31:41;;;;;;;1.02;0.60;;;;;;;1.18;39.71;95837.28;6385981;27;20133;-65
2022/03/21 13:34:53;;;;;;;3.03;0.60;;;;;;;0.79;40.61;95842.44;6389554;27;20039;-63
2022/03/21 13:38:05;;;;;;;0.90;0.50;;;;;;;0.44;41.00;95845.63;6373446;27;20202;-61
2022/03/21 13:41:17;;;;;;;1.60;0.50;;;;;;;0.14;42.00;95850.31;6383986;27;20176;-60
2022/03/21 13:44:22;;;;;;;;;;;;;;;-0.09;42.73;95853.78;6382715;27;20507;-60
2022/03/21 13:47:25;;;;;;;2.42;0.50;;;;;;;-0.52;43.65;95881.28;6381932;27;19929;-62
2022/03/21 13:50:38;;;;;;;1.85;0.80;;;;;;;-1.05;44.87;95875.47;6374413;27;20527;-61
2022/03/21 13:53:40;;;;;;;1.67;1.00;;;;;;;-1.14;44.79;95876.63;6374799;27;20512;-58
2022/03/21 13:56:43;;;;;;;1.98;0.50;;;;;;;-1.47;45.30;95884.63;6374617;27;20047;-55
2022/03/21 14:00:00;;;;;;;1.50;0.75;;;;;;;-1.58;45.71;95887.56;6381813;27;20057;-59
2022/03/21 14:03:04;;;;;;;2.75;0.63;;;;;;;-1.77;45.47;95885.63;6372787;27;20042;-57
2022/03/21 14:06:07;;;;;;;1.70;0.50;;;;;;;-1.85;46.19;95899.59;6373971;27;20066;-59
2022/03/21 14:09:13;;;;;;;3.10;0.90;;;;;;;-1.96;46.03;95908.56;6367174;27;20043;-57
2022/03/21 14:12:17;;;;;;;2.50;1.10;;;;;;;-2.15;46.61;95913.44;6381984;27;20047;-58
2022/03/21 14:15:25;;;;;;;1.27;0.90;;;;;;;-2.26;45.96;95919.78;6373142;27;20054;-59
2022/03/21 14:18:34;;;;;;;2.83;0.93;;;;;;;-2.49;46.51;95927.34;6380621;27;20143;-60
2022/03/21 14:21:36;;;;;;;2.05;1.45;;;;;;;-2.58;47.21;95933.56;6368040;27;20054;-60
2022/03/21 14:24:39;;;;;;;1.08;0.70;;;;;;;-2.68;47.41;95941.63;6359413;27;20047;-62
2022/03/21 14:27:46;;;;;;;1.50;0.70;;;;;;;-2.48;46.83;95952.22;6366022;27;20448;-61
2022/03/21 14:30:49;;;;;;;1.58;0.80;;;;;;;-2.31;46.60;95952.56;6366924;27;20049;-62
2022/03/21 14:33:55;;;;;;;3.90;0.70;;;;;;;-2.34;46.71;95960.38;6372550;27;20095;-60
2022/03/21 14:37:00;;;;;;;1.98;0.70;;;;;;;-2.45;47.04;95965.00;6367299;27;21145;-62
2022/03/21 14:40:04;;;;;;;0.45;0.40;;;;;;;-2.40;46.98;95968.28;6369999;27;20031;-64
2022/03/21 14:43:09;;;;;;;2.97;0.75;;;;;;;-2.37;47.05;95968.19;6368362;27;20053;-62
2022/03/21 14:46:19;;;;;;;1.52;0.70;;;;;;;-2.27;46.46;95979.06;6373708;27;20160;-62
2022/03/21 14:49:24;;;;;;;2.33;0.85;;;;;;;-2.23;46.65;95980.69;6375753;27;20053;-62
2022/03/21 14:52:25;;;;;;;1.17;0.60;;;;;;;-2.40;47.03;95985.47;6364172;27;20044;-63
2022/03/21 14:55:33;;;;;;;2.10;1.02;;;;;;;-2.45;46.98;95985.59;6372015;27;20047;-62
2022/03/21 14:58:36;;;;;;;3.22;1.00;;;;;;;-2.57;47.06;95991.09;6382976;27;20057;-62
2022/03/21 15:01:38;;;;;;;3.03;1.15;;;;;;;-2.77;47.75;95995.06;6373352;27;20030;-62
2022/03/21 15:04:44;;;;;;;2.97;1.15;;;;;;;-2.73;47.60;95991.50;6378903;27;20035;-63
2022/03/21 15:07:49;;;;;;;4.00;1.42;;;;;;;-2.90;48.06;96008.28;6384406;27;20050;-65
2022/03/21 15:10:53;;;;;;;1.45;0.90;;;;;;;-2.93;48.25;96004.06;6375520;27;20440;-69
2022/03/21 15:14:01;;;;;;;2.10;0.63;;;;;;;-2.94;48.21;96004.97;6382390;27;20055;-64
2022/03/21 15:17:06;;;;;;;2.47;0.63;;;;;;;-2.98;48.23;96011.06;6388207;27;20050;-64